createdAt,value
2022-08-04T00:02:30.942Z,5.80
2022-08-04T00:05:10.212Z,5.67
2022-08-04T00:08:05.397Z,5.53
2022-08-04T00:10:37.831Z,6.20
2022-08-04T00:13:10.969Z,5.92
2022-08-04T00:15:43.397Z,5.12
2022-08-04T00:18:17.193Z,6.12
2022-08-04T00:20:48.429Z,5.80
2022-08-04T00:23:20.327Z,6.87
2022-08-04T00:25:51.790Z,6.87
2022-08-04T00:28:24.791Z,6.35
2022-08-04T00:30:56.523Z,6.97
2022-08-04T00:33:28.649Z,7.78
2022-08-04T00:36:02.268Z,7.78
2022-08-04T00:38:33.837Z,7.42
2022-08-04T00:41:16.856Z,7.75
2022-08-04T00:43:56.639Z,6.92
2022-08-04T00:46:49.858Z,6.47
2022-08-04T00:49:35.748Z,6.17
2022-08-04T00:52:31.304Z,5.95
2022-08-04T00:57:45.669Z,6.80
2022-08-04T01:00:18.036Z,6.75
2022-08-04T01:03:15.377Z,6.45
2022-08-04T01:06:07.902Z,5.97
2022-08-04T01:08:47.560Z,6.83
2022-08-04T01:11:28.030Z,7.70
2022-08-04T01:14:01.848Z,6.60
2022-08-04T01:16:35.490Z,6.47
2022-08-04T01:19:13.610Z,6.75
2022-08-04T01:21:47.402Z,5.85
2022-08-04T01:24:29.838Z,6.55
2022-08-04T01:27:04.233Z,6.42
2022-08-04T01:29:41.640Z,7.03
2022-08-04T01:32:17.212Z,7.15
2022-08-04T01:34:56.849Z,6.70
2022-08-04T01:37:47.240Z,8.93
2022-08-04T01:40:18.940Z,6.87
2022-08-04T01:42:52.774Z,6.58
2022-08-04T01:45:26.144Z,6.78
2022-08-04T01:47:58.859Z,6.45
2022-08-04T01:50:31.780Z,6.83
2022-08-04T01:53:04.034Z,6.85
2022-08-04T01:55:54.827Z,6.97
2022-08-04T01:58:10.331Z,6.95
2022-08-04T02:00:44.062Z,6.80
2022-08-04T02:03:15.389Z,7.30
2022-08-04T02:06:03.603Z,7.62
2022-08-04T02:08:44.764Z,7.25
2022-08-04T02:11:18.357Z,7.58
2022-08-04T02:13:52.176Z,7.28
2022-08-04T02:16:41.099Z,7.17
2022-08-04T02:19:43.705Z,7.05
2022-08-04T02:22:17.369Z,7.10
2022-08-04T02:24:51.131Z,9.05
2022-08-04T02:27:26.589Z,7.17
2022-08-04T02:32:36.142Z,7.40
2022-08-04T02:35:09.694Z,7.42
2022-08-04T02:37:43.702Z,7.35
2022-08-04T02:40:16.191Z,7.47
2022-08-04T02:42:48.270Z,7.58
2022-08-04T02:45:20.869Z,7.58
2022-08-04T02:48:28.848Z,7.40
2022-08-04T02:50:29.464Z,7.60
2022-08-04T02:53:09.846Z,7.60
2022-08-04T02:55:41.348Z,8.20
2022-08-04T02:58:16.295Z,7.72
2022-08-04T03:00:47.539Z,7.62
2022-08-04T03:03:26.916Z,7.58
2022-08-04T03:06:12.604Z,7.72
2022-08-04T03:09:09.129Z,7.37
2022-08-04T03:12:01.674Z,7.83
2022-08-04T03:14:56.884Z,8.00
2022-08-04T03:17:59.426Z,7.90
2022-08-04T03:21:06.690Z,8.18
2022-08-04T03:23:46.638Z,7.95
2022-08-04T03:26:29.152Z,8.10
2022-08-04T03:29:36.152Z,8.63
2022-08-04T03:32:35.392Z,7.97
2022-08-04T03:35:22.785Z,7.97
2022-08-04T03:37:59.733Z,7.80
2022-08-04T03:40:56.329Z,7.58
2022-08-04T03:44:03.492Z,7.90
2022-08-04T03:46:42.942Z,8.23
2022-08-04T03:49:50.199Z,7.67
2022-08-04T03:52:45.489Z,7.90
2022-08-04T03:58:11.891Z,7.90
2022-08-04T04:00:51.504Z,10.03
2022-08-04T04:03:58.869Z,7.95
2022-08-04T04:06:53.904Z,10.82
2022-08-04T04:09:52.310Z,9.33
2022-08-04T04:12:26.058Z,10.65
2022-08-04T04:15:03.856Z,9.35
2022-08-04T04:17:37.678Z,8.60
2022-08-04T04:20:31.545Z,7.78
2022-08-04T04:23:23.156Z,7.78
2022-08-04T04:26:15.802Z,8.28
2022-08-04T04:29:12.932Z,8.28
2022-08-04T04:31:52.748Z,8.48
2022-08-04T04:35:00.039Z,8.23
2022-08-04T04:37:53.311Z,7.60
2022-08-04T04:40:33.026Z,8.78
2022-08-04T04:43:06.970Z,8.65
2022-08-04T04:46:00.742Z,8.33
2022-08-04T04:48:46.938Z,9.35
2022-08-04T04:51:23.615Z,8.58
2022-08-04T04:54:00.012Z,8.18
2022-08-04T04:56:49.468Z,8.85
2022-08-04T04:59:26.055Z,8.53
2022-08-04T05:02:09.079Z,9.48
2022-08-04T05:05:01.618Z,9.93
2022-08-04T05:07:53.656Z,9.40
2022-08-04T05:10:44.327Z,9.48
2022-08-04T05:14:34.553Z,10.93
2022-08-04T05:16:30.226Z,11.43
2022-08-04T05:19:23.874Z,9.88
2022-08-04T05:22:04.994Z,9.50
2022-08-04T05:24:38.683Z,10.18
2022-08-04T05:27:12.575Z,9.68
2022-08-04T05:29:51.128Z,9.05
2022-08-04T05:32:28.220Z,13.10
2022-08-04T05:35:02.047Z,18.25
2022-08-04T05:37:35.682Z,18.60
2022-08-04T05:40:09.022Z,15.48
2022-08-04T05:42:44.208Z,12.88
2022-08-04T05:45:15.774Z,10.48
2022-08-04T05:47:47.162Z,10.78
2022-08-04T05:50:20.466Z,10.53
2022-08-04T05:52:53.615Z,9.63
2022-08-04T05:55:57.025Z,9.85
2022-08-04T05:58:03.350Z,9.98
2022-08-04T06:00:41.108Z,9.40
2022-08-04T06:03:11.981Z,9.90
2022-08-04T06:05:45.286Z,10.18
2022-08-04T06:08:16.442Z,14.73
2022-08-04T06:10:49.646Z,14.55
2022-08-04T06:13:46.723Z,12.25
2022-08-04T06:15:59.196Z,10.75
2022-08-04T06:20:00.685Z,9.68
2022-08-04T06:21:16.268Z,10.08
2022-08-04T06:23:53.210Z,9.83
2022-08-04T06:26:18.201Z,10.30
2022-08-04T06:32:26.930Z,9.68
2022-08-04T06:34:17.915Z,10.38
2022-08-04T06:36:50.147Z,10.20
2022-08-04T06:39:24.113Z,9.68
2022-08-04T06:42:17.436Z,9.60
2022-08-04T06:44:31.364Z,10.38
2022-08-04T06:47:03.230Z,10.10
2022-08-04T06:49:44.217Z,9.93
2022-08-04T06:52:09.163Z,9.65
2022-08-04T06:54:39.873Z,9.60
2022-08-04T06:57:13.189Z,9.98
2022-08-04T06:59:46.720Z,10.25
2022-08-04T07:02:20.753Z,9.88
2022-08-04T07:04:52.475Z,10.30
2022-08-04T07:07:34.018Z,10.10
2022-08-04T07:09:58.130Z,10.32
2022-08-04T07:12:30.395Z,10.43
2022-08-04T07:15:01.797Z,10.68
2022-08-04T07:17:35.065Z,10.28
2022-08-04T07:20:10.195Z,12.23
2022-08-04T07:22:44.308Z,9.85
2022-08-04T07:25:17.430Z,9.83
2022-08-04T07:27:49.967Z,11.08
2022-08-04T07:30:24.918Z,9.98
2022-08-04T07:32:56.435Z,9.85
2022-08-04T07:36:05.603Z,10.28
2022-08-04T07:38:04.176Z,13.03
2022-08-04T07:40:38.747Z,11.78
2022-08-04T07:43:11.259Z,10.25
2022-08-04T07:45:42.203Z,9.80
2022-08-04T07:48:15.034Z,9.33
2022-08-04T07:50:47.086Z,10.18
2022-08-04T07:53:52.985Z,9.53
2022-08-04T07:55:52.072Z,9.33
2022-08-04T07:58:23.131Z,9.15
2022-08-04T08:00:55.193Z,9.88
2022-08-04T08:03:27.387Z,9.30
2022-08-04T08:06:31.691Z,9.38
2022-08-04T08:08:31.899Z,9.90
2022-08-04T08:11:03.288Z,8.50
2022-08-04T08:13:34.871Z,7.50
2022-08-04T08:16:06.920Z,8.10
2022-08-04T08:18:37.887Z,7.60
2022-08-04T08:21:09.025Z,6.80
2022-08-04T08:23:41.195Z,6.75
2022-08-04T08:26:12.401Z,6.92
2022-08-04T08:28:43.663Z,9.03
2022-08-04T08:31:57.688Z,7.17
2022-08-04T08:33:57.028Z,7.40
2022-08-04T08:36:31.410Z,7.17
2022-08-04T08:39:14.362Z,7.23
2022-08-04T08:42:08.081Z,6.83
2022-08-04T08:45:17.629Z,6.20
2022-08-04T08:48:13.991Z,6.90
2022-08-04T08:50:56.928Z,6.00
2022-08-04T08:53:47.700Z,6.40
2022-08-04T08:56:55.110Z,6.05
2022-08-04T08:59:51.708Z,6.28
2022-08-04T09:02:48.531Z,6.35
2022-08-04T09:05:24.084Z,5.90
2022-08-04T09:08:00.504Z,6.03
2022-08-04T09:10:39.742Z,6.72
2022-08-04T09:13:46.702Z,6.58
2022-08-04T09:16:42.153Z,6.28
2022-08-04T09:19:37.412Z,6.50
2022-08-04T09:22:13.105Z,5.47
2022-08-04T09:24:54.841Z,6.17
2022-08-04T09:27:48.527Z,5.87
2022-08-04T09:30:22.382Z,5.75
2022-08-04T09:33:05.810Z,6.33
2022-08-04T09:35:54.664Z,5.53
2022-08-04T09:38:35.983Z,5.20
2022-08-04T09:41:35.876Z,5.58
2022-08-04T09:44:50.315Z,6.08
2022-08-04T09:46:40.788Z,6.62
2022-08-04T09:52:13.716Z,6.20
2022-08-04T09:54:50.549Z,4.80
2022-08-04T09:57:37.244Z,5.22
2022-08-04T10:00:11.262Z,5.00
2022-08-04T10:02:48.578Z,4.55
2022-08-04T10:05:26.735Z,5.70
2022-08-04T10:08:16.110Z,6.70
2022-08-04T10:11:03.320Z,5.17
2022-08-04T10:13:40.598Z,5.53
2022-08-04T10:16:17.740Z,5.92
2022-08-04T10:19:22.779Z,5.75
2022-08-04T10:22:29.063Z,5.22
2022-08-04T10:24:52.433Z,4.67
2022-08-04T10:27:38.585Z,6.45
2022-08-04T10:30:15.213Z,5.60
2022-08-04T10:32:53.205Z,5.37
2022-08-04T10:35:27.269Z,5.05
2022-08-04T10:38:04.050Z,5.72
2022-08-04T10:40:49.891Z,5.20
2022-08-04T10:43:57.404Z,5.90
2022-08-04T10:46:40.310Z,5.00
2022-08-04T10:49:16.796Z,4.95
2022-08-04T10:52:08.713Z,5.40
2022-08-04T10:55:02.407Z,5.50
2022-08-04T10:57:39.279Z,5.45
2022-08-04T11:00:15.040Z,5.45
2022-08-04T11:03:08.979Z,4.72
2022-08-04T11:05:52.338Z,4.92
2022-08-04T11:08:29.014Z,4.87
2022-08-04T11:11:22.771Z,5.62
2022-08-04T11:14:03.032Z,4.90
2022-08-04T11:16:39.831Z,7.58
2022-08-04T11:19:13.739Z,5.67
2022-08-04T11:21:47.981Z,5.62
2022-08-04T11:24:41.958Z,5.28
2022-08-04T11:27:19.135Z,7.53
2022-08-04T11:30:09.721Z,5.58
2022-08-04T11:32:48.173Z,5.70
2022-08-04T11:35:38.569Z,5.95
2022-08-04T11:38:32.387Z,5.65
2022-08-04T11:41:06.057Z,6.55
2022-08-04T11:44:01.627Z,6.50
2022-08-04T11:46:38.616Z,6.33
2022-08-04T11:49:15.182Z,6.28
2022-08-04T11:51:47.912Z,6.62
2022-08-04T11:54:20.302Z,5.95
2022-08-04T11:56:52.298Z,5.95
2022-08-04T11:59:26.149Z,6.12
2022-08-04T12:02:24.586Z,5.90
2022-08-04T12:05:02.827Z,5.78
2022-08-04T12:07:42.661Z,5.58
2022-08-04T12:10:41.249Z,6.42
2022-08-04T12:13:24.098Z,5.50
2022-08-04T12:16:17.982Z,5.72
2022-08-04T12:19:01.470Z,5.58
2022-08-04T12:21:50.268Z,5.53
2022-08-04T12:24:20.433Z,5.50
2022-08-04T12:27:00.355Z,5.65
2022-08-04T12:29:34.095Z,6.50
2022-08-04T12:32:10.859Z,5.70
2022-08-04T12:34:44.904Z,5.97
2022-08-04T12:37:37.431Z,5.57
2022-08-04T12:40:29.300Z,6.60
2022-08-04T12:43:25.874Z,5.78
2022-08-04T12:45:59.969Z,5.60
2022-08-04T12:48:33.667Z,7.10
2022-08-04T12:53:51.175Z,7.30
2022-08-04T12:56:20.383Z,5.87
2022-08-04T12:58:53.971Z,6.50
2022-08-04T13:02:10.718Z,8.85
2022-08-04T13:04:05.860Z,5.75
2022-08-04T13:06:39.553Z,6.80
2022-08-04T13:09:19.750Z,5.60
2022-08-04T13:11:53.377Z,5.70
2022-08-04T13:14:27.760Z,5.97
2022-08-04T13:17:04.736Z,6.15
2022-08-04T13:19:41.332Z,5.72
2022-08-04T13:22:10.970Z,5.75
2022-08-04T13:25:18.288Z,5.75
2022-08-04T13:27:20.145Z,6.22
2022-08-04T13:29:58.719Z,5.67
2022-08-04T13:32:29.121Z,5.78
2022-08-04T13:35:02.656Z,6.55
2022-08-04T13:37:39.727Z,5.67
2022-08-04T13:40:13.886Z,6.50
2022-08-04T13:42:47.980Z,5.90
2022-08-04T13:45:21.907Z,6.15
2022-08-04T13:47:55.830Z,5.97
2022-08-04T13:50:35.982Z,5.60
2022-08-04T13:53:07.433Z,6.58
2022-08-04T13:55:39.859Z,5.17
2022-08-04T13:58:14.068Z,8.68
2022-08-04T14:00:51.167Z,5.85
2022-08-04T14:03:53.392Z,5.60
2022-08-04T14:06:37.942Z,6.10
2022-08-04T14:09:35.253Z,5.95
2022-08-04T14:12:38.321Z,6.70
2022-08-04T14:14:49.728Z,6.75
2022-08-04T14:17:29.917Z,6.13
2022-08-04T14:20:02.674Z,6.10
2022-08-04T14:22:36.324Z,6.08
2022-08-04T14:25:20.228Z,5.80
2022-08-04T14:27:56.842Z,6.33
2022-08-04T14:30:39.043Z,6.70
2022-08-04T14:34:00.563Z,6.75
2022-08-04T14:35:50.284Z,6.00
2022-08-04T14:38:19.959Z,6.20
2022-08-04T14:40:50.885Z,6.00
2022-08-04T14:43:23.352Z,5.05
2022-08-04T14:45:58.281Z,6.55
2022-08-04T14:48:29.308Z,5.65
2022-08-04T14:51:00.508Z,6.12
2022-08-04T14:53:31.756Z,5.42
2022-08-04T14:56:03.422Z,5.72
2022-08-04T14:58:39.245Z,5.33
2022-08-04T15:01:12.603Z,6.42
2022-08-04T15:03:50.057Z,9.88
2022-08-04T15:06:22.298Z,5.97
2022-08-04T15:08:53.807Z,5.80
2022-08-04T15:11:26.390Z,5.87
2022-08-04T15:13:59.512Z,6.17
2022-08-04T15:16:33.007Z,5.62
2022-08-04T15:19:04.424Z,9.45
2022-08-04T15:21:37.130Z,6.10
2022-08-04T15:24:08.639Z,6.15
2022-08-04T15:26:42.710Z,5.45
2022-08-04T15:29:19.318Z,6.37
2022-08-04T15:32:06.006Z,5.08
2022-08-04T15:34:24.880Z,5.13
2022-08-04T15:37:00.217Z,5.33
2022-08-04T15:39:49.105Z,5.12
2022-08-04T15:42:32.534Z,5.62
2022-08-04T15:45:18.486Z,5.28
2022-08-04T15:48:09.023Z,5.50
2022-08-04T15:50:46.007Z,6.83
2022-08-04T15:53:23.115Z,5.20
2022-08-04T15:55:50.134Z,5.30
2022-08-04T15:58:24.744Z,5.75
2022-08-04T16:01:04.756Z,4.90
2022-08-04T16:03:58.831Z,4.95
2022-08-04T16:06:21.220Z,4.90
2022-08-04T16:08:57.860Z,4.72
2022-08-04T16:11:32.701Z,4.75
2022-08-04T16:14:09.327Z,4.83
2022-08-04T16:16:44.957Z,4.62
2022-08-04T16:19:35.891Z,5.80
2022-08-04T16:22:07.645Z,4.75
2022-08-04T16:24:43.137Z,4.92
2022-08-04T16:27:17.115Z,4.92
2022-08-04T16:29:50.040Z,7.42
2022-08-04T16:32:24.054Z,4.87
2022-08-04T16:35:01.097Z,4.60
2022-08-04T16:37:38.557Z,6.30
2022-08-04T16:40:34.526Z,5.20
2022-08-04T16:43:10.185Z,5.40
2022-08-04T16:45:47.007Z,4.90
2022-08-04T16:48:23.591Z,5.33
2022-08-04T16:51:04.688Z,4.65
2022-08-04T16:54:05.015Z,5.37
2022-08-04T16:56:33.519Z,6.28
2022-08-04T16:59:11.632Z,5.03
2022-08-04T17:01:56.268Z,5.40
2022-08-04T17:04:35.469Z,6.85
2022-08-04T17:07:09.096Z,4.67
2022-08-04T17:09:41.439Z,6.00
2022-08-04T17:12:13.059Z,5.00
2022-08-04T17:14:45.940Z,4.40
2022-08-04T17:17:19.280Z,4.67
2022-08-04T17:19:54.828Z,5.80
2022-08-04T17:22:25.965Z,5.85
2022-08-04T17:25:00.706Z,6.30
2022-08-04T17:28:08.476Z,5.03
2022-08-04T17:30:04.732Z,4.60
2022-08-04T17:32:35.833Z,5.03
2022-08-04T17:35:09.239Z,6.70
2022-08-04T17:40:26.121Z,5.90
2022-08-04T17:42:52.231Z,4.47
2022-08-04T17:47:58.282Z,5.35
2022-08-04T17:50:31.778Z,6.62
2022-08-04T17:53:12.528Z,7.20
2022-08-04T17:55:49.523Z,6.83
2022-08-04T17:58:26.843Z,8.23
2022-08-04T18:01:23.486Z,6.55
2022-08-04T18:03:42.505Z,7.00
2022-08-04T18:06:15.542Z,5.47
2022-08-04T18:08:50.477Z,4.90
2022-08-04T18:11:29.492Z,5.62
2022-08-04T18:13:57.092Z,6.30
2022-08-04T18:16:28.672Z,7.00
2022-08-04T18:19:19.025Z,5.20
2022-08-04T18:21:59.448Z,5.90
2022-08-04T18:24:34.582Z,6.97
2022-08-04T18:26:56.874Z,8.55
2022-08-04T18:29:31.666Z,5.53
2022-08-04T18:32:01.615Z,8.05
2022-08-04T18:34:32.624Z,6.35
2022-08-04T18:37:04.910Z,6.97
2022-08-04T18:40:09.545Z,6.80
2022-08-04T18:42:10.620Z,6.45
2022-08-04T18:44:53.056Z,6.90
2022-08-04T18:50:58.552Z,6.75
2022-08-04T18:52:24.099Z,9.18
2022-08-04T18:54:53.309Z,7.28
2022-08-04T18:57:59.316Z,8.83
2022-08-04T19:00:00.563Z,8.43
2022-08-04T19:02:32.779Z,7.70
2022-08-04T19:05:05.330Z,8.28
2022-08-04T19:08:01.930Z,7.50
2022-08-04T19:10:23.686Z,10.88
2022-08-04T19:12:43.522Z,8.75
2022-08-04T19:15:19.509Z,8.60
2022-08-04T19:17:56.999Z,8.73
2022-08-04T19:20:25.975Z,8.63
2022-08-04T19:24:10.711Z,8.48
2022-08-04T19:25:58.487Z,8.23
2022-08-04T19:28:05.724Z,8.65
2022-08-04T19:30:40.281Z,8.48
2022-08-04T19:33:13.663Z,8.75
2022-08-04T19:35:50.784Z,9.60
2022-08-04T19:38:21.091Z,8.88
2022-08-04T19:40:54.355Z,8.35
2022-08-04T19:43:27.405Z,9.88
2022-08-04T19:46:00.618Z,7.75
2022-08-04T19:48:32.500Z,8.43
2022-08-04T19:51:04.295Z,9.75
2022-08-04T19:53:43.020Z,9.88
2022-08-04T19:56:10.425Z,9.03
2022-08-04T19:58:48.091Z,7.22
2022-08-04T20:01:33.564Z,8.35
2022-08-04T20:04:10.407Z,7.87
2022-08-04T20:06:24.566Z,8.20
2022-08-04T20:08:55.553Z,11.10
2022-08-04T20:11:28.466Z,7.75
2022-08-04T20:13:59.802Z,7.22
2022-08-04T20:16:32.971Z,7.65
2022-08-04T20:19:06.230Z,11.18
2022-08-04T20:21:55.544Z,7.80
2022-08-04T20:24:39.202Z,7.10
2022-08-04T20:26:43.639Z,7.60
2022-08-04T20:29:39.001Z,10.88
2022-08-04T20:31:49.681Z,7.97
2022-08-04T20:34:22.544Z,10.28
2022-08-04T20:36:54.822Z,8.20
2022-08-04T20:39:27.180Z,7.60
2022-08-04T20:41:58.715Z,7.97
2022-08-04T20:44:31.157Z,11.88
2022-08-04T20:47:02.682Z,7.17
2022-08-04T20:49:36.069Z,7.03
2022-08-04T20:54:42.121Z,7.03
2022-08-04T20:57:16.613Z,7.08
2022-08-04T21:02:22.759Z,7.22
2022-08-04T21:04:54.147Z,7.28
2022-08-04T21:07:25.722Z,10.72
2022-08-04T21:09:57.328Z,8.98
2022-08-04T21:12:29.197Z,8.60
2022-08-04T21:15:13.568Z,8.08
2022-08-04T21:17:56.791Z,8.98
2022-08-04T21:20:12.880Z,6.35
2022-08-04T21:22:43.644Z,9.03
2022-08-04T21:25:16.654Z,7.65
2022-08-04T21:27:50.622Z,8.88
2022-08-04T21:30:25.034Z,7.33
2022-08-04T21:32:55.716Z,8.50
2022-08-04T21:35:39.114Z,7.95
2022-08-04T21:38:01.312Z,9.23
2022-08-04T21:40:38.644Z,6.65
2022-08-04T21:43:07.718Z,6.83
2022-08-04T21:45:39.259Z,7.37
2022-08-04T21:48:10.506Z,7.97
2022-08-04T21:50:41.807Z,7.75
2022-08-04T21:53:14.356Z,13.10
2022-08-04T21:56:04.809Z,9.13
2022-08-04T21:58:19.660Z,10.08
2022-08-04T22:00:52.774Z,8.23
2022-08-04T22:03:51.888Z,7.55
2022-08-04T22:05:59.603Z,7.20
2022-08-04T22:08:30.703Z,7.40
2022-08-04T22:11:02.191Z,9.65
2022-08-04T22:13:52.538Z,7.00
2022-08-04T22:16:07.694Z,7.12
2022-08-04T22:18:38.758Z,8.95
2022-08-04T22:21:12.137Z,8.73
2022-08-04T22:23:45.412Z,9.15
2022-08-04T22:26:20.135Z,8.85
2022-08-04T22:28:51.509Z,10.20
2022-08-04T22:31:24.754Z,7.62
2022-08-04T22:33:56.305Z,8.28
2022-08-04T22:36:27.625Z,10.82
2022-08-04T22:39:06.569Z,8.03
2022-08-04T22:41:33.960Z,7.08
2022-08-04T22:44:08.278Z,7.35
2022-08-04T22:46:39.908Z,6.92
2022-08-04T22:49:11.407Z,7.08
2022-08-04T22:51:50.820Z,8.05
2022-08-04T22:54:14.941Z,7.83
2022-08-04T22:56:46.017Z,7.65
2022-08-04T22:59:17.017Z,9.68
2022-08-04T23:02:00.341Z,7.33
2022-08-04T23:04:20.477Z,8.38
2022-08-04T23:06:51.620Z,7.50
2022-08-04T23:09:49.413Z,7.78
2022-08-04T23:12:22.289Z,8.23
2022-08-04T23:14:27.922Z,9.90
2022-08-04T23:16:58.982Z,9.70
2022-08-04T23:19:31.943Z,7.12
2022-08-04T23:22:02.448Z,7.58
2022-08-04T23:24:33.589Z,9.95
2022-08-04T23:27:06.392Z,8.05
2022-08-04T23:29:52.414Z,7.07
2022-08-04T23:32:14.448Z,8.35
2022-08-04T23:34:47.032Z,6.97
2022-08-04T23:37:17.998Z,7.45
2022-08-04T23:40:14.418Z,8.53
2022-08-04T23:42:21.747Z,8.15
2022-08-04T23:44:55.260Z,6.80
2022-08-04T23:48:15.874Z,6.97
2022-08-04T23:49:59.320Z,8.53
2022-08-04T23:52:31.063Z,7.15
2022-08-04T23:55:02.591Z,7.45
2022-08-04T23:58:05.309Z,8.30
